createdAt,value
2018-09-23T17:00:44.845Z,64.39
2018-09-23T17:03:24.804Z,80.54
2018-09-23T17:06:03.924Z,85.38
2018-09-23T17:08:50.957Z,84.58
2018-09-23T17:11:40.691Z,85.55
2018-09-23T17:14:37.620Z,87.79
2018-09-23T17:17:20.706Z,86.71
2018-09-23T17:22:50.728Z,100.00
2018-09-23T17:25:30.442Z,98.03
2018-09-23T17:28:08.405Z,100.00
2018-09-23T17:30:48.240Z,100.00
2018-09-23T17:33:28.343Z,100.00
2018-09-23T17:36:09.150Z,94.97
2018-09-23T17:38:51.487Z,97.49
2018-09-23T17:41:33.569Z,96.04
2018-09-23T17:44:19.885Z,92.79
2018-09-23T17:46:57.407Z,95.16
2018-09-23T17:49:34.497Z,96.66
2018-09-23T17:52:15.438Z,96.65
2018-09-23T17:54:54.096Z,100.00
2018-09-23T17:57:34.711Z,100.00
2018-09-23T18:00:14.451Z,100.00
2018-09-23T18:02:54.822Z,100.00
2018-09-23T18:05:33.329Z,100.00
2018-09-23T18:08:14.222Z,100.00
2018-09-23T18:10:53.994Z,100.00
2018-09-23T18:13:32.460Z,100.00
2018-09-23T18:16:12.109Z,100.00
2018-09-23T18:18:56.256Z,100.00
2018-09-23T18:21:34.092Z,93.33
2018-09-23T18:24:16.770Z,91.70
2018-09-23T18:26:54.719Z,93.00
2018-09-23T18:29:37.955Z,100.00
2018-09-23T18:32:16.152Z,99.81
2018-09-23T18:34:55.758Z,96.41
2018-09-23T18:37:35.612Z,95.88
2018-09-23T18:40:15.485Z,82.53
2018-09-23T18:42:57.256Z,81.62
2018-09-23T18:45:35.860Z,81.14
2018-09-23T18:48:14.793Z,77.86
2018-09-23T18:50:54.885Z,83.80
2018-09-23T18:53:34.125Z,80.54
2018-09-23T18:56:10.569Z,80.08
2018-09-23T18:58:52.828Z,81.34
2018-09-23T19:01:37.867Z,83.25
2018-09-23T19:04:18.070Z,82.79
2018-09-23T19:07:01.116Z,95.39
2018-09-23T19:09:40.313Z,86.65
2018-09-23T19:12:18.655Z,84.75
2018-09-23T19:15:02.611Z,87.31
2018-09-23T19:17:41.872Z,90.98
2018-09-23T19:20:21.399Z,85.92
2018-09-23T19:23:05.471Z,93.72
2018-09-23T19:28:29.976Z,87.43
2018-09-23T19:31:07.880Z,88.45
2018-09-23T19:33:49.509Z,86.77
2018-09-23T19:36:28.662Z,87.45
2018-09-23T19:39:11.096Z,88.28
2018-09-23T19:41:50.053Z,88.53
2018-09-23T19:44:26.874Z,87.02
2018-09-23T19:47:05.264Z,86.52
2018-09-23T19:49:43.899Z,88.84
2018-09-23T19:52:28.940Z,87.37
2018-09-23T19:55:06.111Z,89.08
2018-09-23T19:57:45.564Z,87.62
2018-09-23T20:00:25.440Z,91.82
2018-09-23T20:03:04.947Z,79.58
2018-09-23T20:05:46.741Z,80.07
2018-09-23T20:08:27.267Z,79.03
2018-09-23T20:11:05.385Z,84.65
2018-09-23T20:13:45.344Z,81.48
2018-09-23T20:16:28.794Z,99.64
2018-09-23T20:19:12.376Z,100.00
2018-09-23T20:21:49.160Z,67.52
2018-09-23T20:24:28.651Z,63.24
2018-09-23T20:27:09.911Z,65.09
2018-09-23T20:29:47.801Z,71.77
2018-09-23T20:32:29.269Z,74.87
2018-09-23T20:35:09.253Z,77.98
2018-09-23T20:37:49.465Z,73.37
2018-09-23T20:40:33.155Z,72.71
2018-09-23T20:43:13.362Z,81.86
2018-09-23T20:45:51.358Z,84.77
2018-09-23T20:48:29.189Z,82.83
2018-09-23T20:51:18.400Z,82.09
2018-09-23T20:53:58.799Z,78.78
